sensor_id;sensor_type;location;lat;lon;timestamp;P1;durP1;ratioP1;P2;durP2;ratioP2
8757;SDS011;4415;42.152;24.744;2023-06-24T00:01:31;8.93;;;8.13;;
8757;SDS011;4415;42.152;24.744;2023-06-24T00:03:57;8.80;;;8.10;;
8757;SDS011;4415;42.152;24.744;2023-06-24T00:06:22;9.15;;;8.32;;
8757;SDS011;4415;42.152;24.744;2023-06-24T00:08:51;9.32;;;7.97;;
8757;SDS011;4415;42.152;24.744;2023-06-24T00:11:17;8.50;;;7.82;;
8757;SDS011;4415;42.152;24.744;2023-06-24T00:13:43;8.65;;;8.00;;
8757;SDS011;4415;42.152;24.744;2023-06-24T00:16:09;8.50;;;7.80;;
8757;SDS011;4415;42.152;24.744;2023-06-24T00:18:35;8.40;;;7.70;;
8757;SDS011;4415;42.152;24.744;2023-06-24T00:21:02;8.40;;;7.70;;
8757;SDS011;4415;42.152;24.744;2023-06-24T00:23:28;8.38;;;7.70;;
8757;SDS011;4415;42.152;24.744;2023-06-24T00:26:03;7.95;;;7.32;;
8757;SDS011;4415;42.152;24.744;2023-06-24T00:28:29;7.78;;;7.18;;
8757;SDS011;4415;42.152;24.744;2023-06-24T00:30:54;7.90;;;7.30;;
8757;SDS011;4415;42.152;24.744;2023-06-24T00:33:20;8.57;;;7.85;;
8757;SDS011;4415;42.152;24.744;2023-06-24T00:35:45;7.97;;;7.38;;
8757;SDS011;4415;42.152;24.744;2023-06-24T00:38:11;7.57;;;6.97;;
8757;SDS011;4415;42.152;24.744;2023-06-24T00:40:37;7.33;;;6.77;;
8757;SDS011;4415;42.152;24.744;2023-06-24T00:43:04;8.30;;;7.50;;
8757;SDS011;4415;42.152;24.744;2023-06-24T00:45:30;8.83;;;7.37;;
8757;SDS011;4415;42.152;24.744;2023-06-24T00:47:56;7.55;;;6.95;;
8757;SDS011;4415;42.152;24.744;2023-06-24T00:50:23;7.93;;;7.32;;
8757;SDS011;4415;42.152;24.744;2023-06-24T00:52:48;7.88;;;7.10;;
8757;SDS011;4415;42.152;24.744;2023-06-24T00:55:14;7.80;;;7.20;;
8757;SDS011;4415;42.152;24.744;2023-06-24T00:57:43;8.15;;;7.20;;
8757;SDS011;4415;42.152;24.744;2023-06-24T01:00:10;7.97;;;7.20;;
8757;SDS011;4415;42.152;24.744;2023-06-24T01:02:40;8.43;;;7.07;;
8757;SDS011;4415;42.152;24.744;2023-06-24T01:05:07;7.30;;;6.80;;
8757;SDS011;4415;42.152;24.744;2023-06-24T01:07:33;8.25;;;7.10;;
8757;SDS011;4415;42.152;24.744;2023-06-24T01:10:01;7.85;;;6.85;;
8757;SDS011;4415;42.152;24.744;2023-06-24T01:12:27;7.00;;;6.20;;
8757;SDS011;4415;42.152;24.744;2023-06-24T01:14:53;7.63;;;6.88;;
8757;SDS011;4415;42.152;24.744;2023-06-24T01:17:28;6.73;;;6.23;;
8757;SDS011;4415;42.152;24.744;2023-06-24T01:33:10;7.70;;;5.93;;
8757;SDS011;4415;42.152;24.744;2023-06-24T01:35:40;6.73;;;6.13;;
8757;SDS011;4415;42.152;24.744;2023-06-24T01:38:08;7.20;;;6.60;;
8757;SDS011;4415;42.152;24.744;2023-06-24T01:40:35;6.93;;;6.23;;
8757;SDS011;4415;42.152;24.744;2023-06-24T01:43:05;6.60;;;6.00;;
8757;SDS011;4415;42.152;24.744;2023-06-24T01:45:35;6.65;;;6.05;;
8757;SDS011;4415;42.152;24.744;2023-06-24T01:53:42;7.00;;;6.50;;
8757;SDS011;4415;42.152;24.744;2023-06-24T01:56:12;8.50;;;6.30;;
8757;SDS011;4415;42.152;24.744;2023-06-24T01:58:40;7.97;;;6.23;;
8757;SDS011;4415;42.152;24.744;2023-06-24T02:01:08;6.60;;;6.07;;
8757;SDS011;4415;42.152;24.744;2023-06-24T02:03:34;7.00;;;6.50;;
8757;SDS011;4415;42.152;24.744;2023-06-24T02:06:01;6.70;;;6.20;;
8757;SDS011;4415;42.152;24.744;2023-06-24T02:08:32;7.03;;;6.40;;
8757;SDS011;4415;42.152;24.744;2023-06-24T02:10:59;6.30;;;5.73;;
8757;SDS011;4415;42.152;24.744;2023-06-24T02:13:26;6.77;;;6.07;;
8757;SDS011;4415;42.152;24.744;2023-06-24T02:15:57;7.40;;;6.80;;
8757;SDS011;4415;42.152;24.744;2023-06-24T02:18:25;6.50;;;6.10;;
8757;SDS011;4415;42.152;24.744;2023-06-24T02:20:52;6.97;;;6.30;;
8757;SDS011;4415;42.152;24.744;2023-06-24T02:23:18;7.43;;;6.80;;
8757;SDS011;4415;42.152;24.744;2023-06-24T02:25:45;7.00;;;6.30;;
8757;SDS011;4415;42.152;24.744;2023-06-24T02:28:11;7.00;;;6.40;;
8757;SDS011;4415;42.152;24.744;2023-06-24T02:30:37;7.20;;;6.57;;
8757;SDS011;4415;42.152;24.744;2023-06-24T02:33:03;6.73;;;6.10;;
8757;SDS011;4415;42.152;24.744;2023-06-24T02:35:29;7.53;;;6.90;;
8757;SDS011;4415;42.152;24.744;2023-06-24T02:37:54;7.37;;;6.50;;
8757;SDS011;4415;42.152;24.744;2023-06-24T02:40:20;7.00;;;6.50;;
8757;SDS011;4415;42.152;24.744;2023-06-24T02:42:45;7.20;;;6.53;;
8757;SDS011;4415;42.152;24.744;2023-06-24T02:45:11;7.47;;;6.30;;
8757;SDS011;4415;42.152;24.744;2023-06-24T02:47:37;7.68;;;6.65;;
8757;SDS011;4415;42.152;24.744;2023-06-24T02:50:04;6.80;;;6.30;;
8757;SDS011;4415;42.152;24.744;2023-06-24T02:52:33;7.18;;;6.35;;
8757;SDS011;4415;42.152;24.744;2023-06-24T02:54:58;8.77;;;6.80;;
8757;SDS011;4415;42.152;24.744;2023-06-24T02:57:24;7.20;;;6.70;;
8757;SDS011;4415;42.152;24.744;2023-06-24T02:59:51;7.17;;;6.63;;
8757;SDS011;4415;42.152;24.744;2023-06-24T03:02:17;7.50;;;6.90;;
8757;SDS011;4415;42.152;24.744;2023-06-24T03:04:43;6.73;;;6.23;;
8757;SDS011;4415;42.152;24.744;2023-06-24T03:07:09;7.67;;;6.60;;
8757;SDS011;4415;42.152;24.744;2023-06-24T03:09:35;7.60;;;6.87;;
8757;SDS011;4415;42.152;24.744;2023-06-24T03:12:01;7.67;;;6.97;;
8757;SDS011;4415;42.152;24.744;2023-06-24T03:14:27;8.50;;;6.67;;
8757;SDS011;4415;42.152;24.744;2023-06-24T03:16:52;8.23;;;6.67;;
8757;SDS011;4415;42.152;24.744;2023-06-24T03:19:17;7.47;;;6.47;;
8757;SDS011;4415;42.152;24.744;2023-06-24T03:21:43;6.77;;;6.30;;
8757;SDS011;4415;42.152;24.744;2023-06-24T03:24:08;6.97;;;6.47;;
8757;SDS011;4415;42.152;24.744;2023-06-24T03:26:34;7.85;;;7.15;;
8757;SDS011;4415;42.152;24.744;2023-06-24T03:29:00;8.45;;;7.05;;
8757;SDS011;4415;42.152;24.744;2023-06-24T03:31:26;7.20;;;6.38;;
8757;SDS011;4415;42.152;24.744;2023-06-24T03:33:52;6.90;;;6.30;;
8757;SDS011;4415;42.152;24.744;2023-06-24T03:36:17;6.77;;;6.27;;
8757;SDS011;4415;42.152;24.744;2023-06-24T03:38:43;7.10;;;6.50;;
8757;SDS011;4415;42.152;24.744;2023-06-24T03:41:08;7.10;;;6.50;;
8757;SDS011;4415;42.152;24.744;2023-06-24T03:43:33;7.13;;;6.43;;
8757;SDS011;4415;42.152;24.744;2023-06-24T03:45:59;7.37;;;6.70;;
8757;SDS011;4415;42.152;24.744;2023-06-24T03:48:25;7.43;;;6.43;;
8757;SDS011;4415;42.152;24.744;2023-06-24T03:50:50;7.15;;;6.55;;
8757;SDS011;4415;42.152;24.744;2023-06-24T03:53:16;6.90;;;6.22;;
8757;SDS011;4415;42.152;24.744;2023-06-24T03:55:41;7.00;;;6.40;;
8757;SDS011;4415;42.152;24.744;2023-06-24T03:58:06;8.45;;;6.78;;
8757;SDS011;4415;42.152;24.744;2023-06-24T04:00:33;8.05;;;6.75;;
8757;SDS011;4415;42.152;24.744;2023-06-24T04:02:58;7.60;;;6.85;;
8757;SDS011;4415;42.152;24.744;2023-06-24T04:05:26;6.78;;;6.25;;
8757;SDS011;4415;42.152;24.744;2023-06-24T04:07:51;6.75;;;6.10;;
8757;SDS011;4415;42.152;24.744;2023-06-24T04:10:17;7.05;;;6.38;;
8757;SDS011;4415;42.152;24.744;2023-06-24T04:12:43;6.75;;;6.20;;
8757;SDS011;4415;42.152;24.744;2023-06-24T04:15:09;7.20;;;6.53;;
8757;SDS011;4415;42.152;24.744;2023-06-24T04:17:35;7.75;;;6.25;;
8757;SDS011;4415;42.152;24.744;2023-06-24T04:20:00;8.25;;;6.40;;
8757;SDS011;4415;42.152;24.744;2023-06-24T04:22:28;7.35;;;6.70;;
8757;SDS011;4415;42.152;24.744;2023-06-24T04:24:54;6.97;;;6.38;;
8757;SDS011;4415;42.152;24.744;2023-06-24T04:27:19;7.22;;;6.55;;
8757;SDS011;4415;42.152;24.744;2023-06-24T04:29:44;7.18;;;6.57;;
8757;SDS011;4415;42.152;24.744;2023-06-24T04:32:10;7.10;;;6.50;;
8757;SDS011;4415;42.152;24.744;2023-06-24T04:34:35;7.75;;;7.00;;
8757;SDS011;4415;42.152;24.744;2023-06-24T04:37:00;7.60;;;6.50;;
8757;SDS011;4415;42.152;24.744;2023-06-24T04:39:26;7.43;;;6.82;;
8757;SDS011;4415;42.152;24.744;2023-06-24T04:41:52;7.97;;;6.60;;
8757;SDS011;4415;42.152;24.744;2023-06-24T04:44:17;7.20;;;6.70;;
8757;SDS011;4415;42.152;24.744;2023-06-24T04:46:45;7.18;;;6.57;;
8757;SDS011;4415;42.152;24.744;2023-06-24T04:49:10;7.32;;;6.60;;
8757;SDS011;4415;42.152;24.744;2023-06-24T04:51:36;7.13;;;6.63;;
8757;SDS011;4415;42.152;24.744;2023-06-24T04:54:01;6.93;;;6.32;;
8757;SDS011;4415;42.152;24.744;2023-06-24T04:56:28;6.88;;;6.35;;
8757;SDS011;4415;42.152;24.744;2023-06-24T04:58:54;6.75;;;6.25;;
8757;SDS011;4415;42.152;24.744;2023-06-24T05:01:20;7.57;;;6.90;;
8757;SDS011;4415;42.152;24.744;2023-06-24T05:03:45;7.55;;;6.82;;
8757;SDS011;4415;42.152;24.744;2023-06-24T05:06:11;7.50;;;7.00;;
8757;SDS011;4415;42.152;24.744;2023-06-24T05:08:36;6.85;;;6.28;;
8757;SDS011;4415;42.152;24.744;2023-06-24T05:11:01;7.10;;;6.60;;
8757;SDS011;4415;42.152;24.744;2023-06-24T05:13:27;7.30;;;6.68;;
8757;SDS011;4415;42.152;24.744;2023-06-24T05:15:53;6.90;;;6.45;;
8757;SDS011;4415;42.152;24.744;2023-06-24T05:18:18;7.35;;;6.75;;
8757;SDS011;4415;42.152;24.744;2023-06-24T05:20:43;7.30;;;6.57;;
8757;SDS011;4415;42.152;24.744;2023-06-24T05:23:09;7.70;;;7.13;;
8757;SDS011;4415;42.152;24.744;2023-06-24T05:25:34;7.75;;;7.10;;
8757;SDS011;4415;42.152;24.744;2023-06-24T05:28:00;7.97;;;7.18;;
8757;SDS011;4415;42.152;24.744;2023-06-24T05:30:26;7.20;;;6.70;;
8757;SDS011;4415;42.152;24.744;2023-06-24T05:32:51;7.15;;;6.65;;
8757;SDS011;4415;42.152;24.744;2023-06-24T05:35:16;7.75;;;7.13;;
8757;SDS011;4415;42.152;24.744;2023-06-24T05:37:42;7.75;;;7.03;;
8757;SDS011;4415;42.152;24.744;2023-06-24T05:40:07;8.35;;;6.85;;
8757;SDS011;4415;42.152;24.744;2023-06-24T05:42:34;7.82;;;6.78;;
8757;SDS011;4415;42.152;24.744;2023-06-24T05:45:00;8.75;;;7.25;;
8757;SDS011;4415;42.152;24.744;2023-06-24T05:47:25;7.47;;;6.97;;
8757;SDS011;4415;42.152;24.744;2023-06-24T05:49:50;8.02;;;7.32;;
8757;SDS011;4415;42.152;24.744;2023-06-24T05:52:16;8.52;;;7.20;;
8757;SDS011;4415;42.152;24.744;2023-06-24T05:54:41;7.75;;;7.25;;
8757;SDS011;4415;42.152;24.744;2023-06-24T05:57:06;8.63;;;8.00;;
8757;SDS011;4415;42.152;24.744;2023-06-24T05:59:32;10.80;;;6.93;;
8757;SDS011;4415;42.152;24.744;2023-06-24T06:01:58;8.10;;;7.05;;
8757;SDS011;4415;42.152;24.744;2023-06-24T06:04:24;7.75;;;7.25;;
8757;SDS011;4415;42.152;24.744;2023-06-24T06:06:49;8.43;;;7.18;;
8757;SDS011;4415;42.152;24.744;2023-06-24T06:09:15;7.88;;;6.97;;
8757;SDS011;4415;42.152;24.744;2023-06-24T06:11:40;10.25;;;7.90;;
8757;SDS011;4415;42.152;24.744;2023-06-24T06:14:05;7.72;;;7.13;;
8757;SDS011;4415;42.152;24.744;2023-06-24T06:16:31;9.43;;;7.05;;
8757;SDS011;4415;42.152;24.744;2023-06-24T06:18:56;8.32;;;7.57;;
8757;SDS011;4415;42.152;24.744;2023-06-24T06:21:22;8.00;;;7.30;;
8757;SDS011;4415;42.152;24.744;2023-06-24T06:23:47;8.38;;;7.65;;
8757;SDS011;4415;42.152;24.744;2023-06-24T06:26:12;8.38;;;7.55;;
8757;SDS011;4415;42.152;24.744;2023-06-24T06:28:38;8.10;;;7.53;;
8757;SDS011;4415;42.152;24.744;2023-06-24T06:31:03;10.15;;;7.47;;
8757;SDS011;4415;42.152;24.744;2023-06-24T06:33:29;8.75;;;7.72;;
8757;SDS011;4415;42.152;24.744;2023-06-24T06:35:54;8.73;;;8.13;;
8757;SDS011;4415;42.152;24.744;2023-06-24T06:38:19;9.05;;;8.30;;
8757;SDS011;4415;42.152;24.744;2023-06-24T06:40:45;8.82;;;8.13;;
8757;SDS011;4415;42.152;24.744;2023-06-24T06:43:10;9.45;;;7.97;;
8757;SDS011;4415;42.152;24.744;2023-06-24T06:45:36;8.70;;;7.80;;
8757;SDS011;4415;42.152;24.744;2023-06-24T06:48:01;8.57;;;7.97;;
8757;SDS011;4415;42.152;24.744;2023-06-24T06:50:30;8.75;;;7.97;;
8757;SDS011;4415;42.152;24.744;2023-06-24T06:52:55;9.57;;;8.48;;
8757;SDS011;4415;42.152;24.744;2023-06-24T06:55:21;8.95;;;8.35;;
8757;SDS011;4415;42.152;24.744;2023-06-24T06:57:46;9.00;;;8.23;;
8757;SDS011;4415;42.152;24.744;2023-06-24T07:00:12;8.00;;;7.40;;
8757;SDS011;4415;42.152;24.744;2023-06-24T07:02:37;9.13;;;8.30;;
8757;SDS011;4415;42.152;24.744;2023-06-24T07:05:03;8.50;;;7.78;;
8757;SDS011;4415;42.152;24.744;2023-06-24T07:07:28;10.05;;;9.18;;
8757;SDS011;4415;42.152;24.744;2023-06-24T07:09:54;8.57;;;7.90;;
8757;SDS011;4415;42.152;24.744;2023-06-24T07:12:19;10.10;;;8.25;;
8757;SDS011;4415;42.152;24.744;2023-06-24T07:14:46;11.40;;;7.90;;
8757;SDS011;4415;42.152;24.744;2023-06-24T07:17:11;10.75;;;8.27;;
8757;SDS011;4415;42.152;24.744;2023-06-24T07:19:36;8.52;;;8.02;;
8757;SDS011;4415;42.152;24.744;2023-06-24T07:22:02;9.68;;;8.75;;
8757;SDS011;4415;42.152;24.744;2023-06-24T07:24:27;8.15;;;7.57;;
8757;SDS011;4415;42.152;24.744;2023-06-24T07:26:53;9.40;;;8.43;;
8757;SDS011;4415;42.152;24.744;2023-06-24T07:29:18;8.57;;;7.97;;
8757;SDS011;4415;42.152;24.744;2023-06-24T07:31:43;8.65;;;7.95;;
8757;SDS011;4415;42.152;24.744;2023-06-24T07:34:09;8.75;;;8.07;;
8757;SDS011;4415;42.152;24.744;2023-06-24T07:36:34;9.25;;;8.65;;
8757;SDS011;4415;42.152;24.744;2023-06-24T07:38:59;9.40;;;8.35;;
8757;SDS011;4415;42.152;24.744;2023-06-24T07:41:25;9.38;;;8.65;;
8757;SDS011;4415;42.152;24.744;2023-06-24T07:43:50;9.80;;;8.23;;
8757;SDS011;4415;42.152;24.744;2023-06-24T07:46:16;9.05;;;8.35;;
8757;SDS011;4415;42.152;24.744;2023-06-24T07:48:41;10.07;;;9.25;;
8757;SDS011;4415;42.152;24.744;2023-06-24T07:51:07;9.10;;;8.38;;
8757;SDS011;4415;42.152;24.744;2023-06-24T07:53:33;8.48;;;7.50;;
8757;SDS011;4415;42.152;24.744;2023-06-24T07:55:59;8.98;;;8.27;;
8757;SDS011;4415;42.152;24.744;2023-06-24T07:58:24;9.50;;;8.25;;
8757;SDS011;4415;42.152;24.744;2023-06-24T08:00:49;8.48;;;7.97;;
8757;SDS011;4415;42.152;24.744;2023-06-24T08:03:15;7.63;;;7.03;;
8757;SDS011;4415;42.152;24.744;2023-06-24T08:05:40;8.45;;;7.72;;
8757;SDS011;4415;42.152;24.744;2023-06-24T08:08:06;9.18;;;8.25;;
8757;SDS011;4415;42.152;24.744;2023-06-24T08:10:31;8.30;;;7.55;;
8757;SDS011;4415;42.152;24.744;2023-06-24T08:12:57;8.88;;;8.25;;
8757;SDS011;4415;42.152;24.744;2023-06-24T08:15:23;9.30;;;7.80;;
8757;SDS011;4415;42.152;24.744;2023-06-24T08:17:51;8.43;;;7.82;;
8757;SDS011;4415;42.152;24.744;2023-06-24T08:20:19;7.45;;;7.05;;
8757;SDS011;4415;42.152;24.744;2023-06-24T08:22:48;7.95;;;7.45;;
8757;SDS011;4415;42.152;24.744;2023-06-24T08:25:13;9.63;;;8.45;;
8757;SDS011;4415;42.152;24.744;2023-06-24T08:27:39;8.55;;;7.70;;
8757;SDS011;4415;42.152;24.744;2023-06-24T08:30:07;8.65;;;7.95;;
8757;SDS011;4415;42.152;24.744;2023-06-24T08:32:33;8.57;;;7.80;;
8757;SDS011;4415;42.152;24.744;2023-06-24T08:34:58;7.80;;;7.22;;
8757;SDS011;4415;42.152;24.744;2023-06-24T08:37:24;8.43;;;7.85;;
8757;SDS011;4415;42.152;24.744;2023-06-24T08:39:49;8.30;;;7.80;;
8757;SDS011;4415;42.152;24.744;2023-06-24T08:42:15;8.80;;;8.02;;
8757;SDS011;4415;42.152;24.744;2023-06-24T08:44:40;11.30;;;8.25;;
8757;SDS011;4415;42.152;24.744;2023-06-24T08:47:06;11.07;;;9.27;;
8757;SDS011;4415;42.152;24.744;2023-06-24T08:49:32;12.30;;;8.85;;
8757;SDS011;4415;42.152;24.744;2023-06-24T08:54:35;8.73;;;7.93;;
8757;SDS011;4415;42.152;24.744;2023-06-24T08:57:02;9.23;;;8.50;;
8757;SDS011;4415;42.152;24.744;2023-06-24T08:59:30;9.45;;;8.63;;
8757;SDS011;4415;42.152;24.744;2023-06-24T09:01:56;9.93;;;9.10;;
8757;SDS011;4415;42.152;24.744;2023-06-24T09:04:21;9.80;;;8.77;;
8757;SDS011;4415;42.152;24.744;2023-06-24T09:06:47;10.25;;;8.63;;
8757;SDS011;4415;42.152;24.744;2023-06-24T09:09:19;9.38;;;8.52;;
8757;SDS011;4415;42.152;24.744;2023-06-24T09:11:53;10.85;;;8.23;;
8757;SDS011;4415;42.152;24.744;2023-06-24T09:14:21;8.50;;;8.00;;
8757;SDS011;4415;42.152;24.744;2023-06-24T09:16:56;8.70;;;8.10;;
8757;SDS011;4415;42.152;24.744;2023-06-24T09:19:24;8.90;;;8.02;;
8757;SDS011;4415;42.152;24.744;2023-06-24T09:21:53;8.48;;;7.90;;
8757;SDS011;4415;42.152;24.744;2023-06-24T09:24:18;8.77;;;7.95;;
8757;SDS011;4415;42.152;24.744;2023-06-24T09:26:45;8.80;;;8.02;;
8757;SDS011;4415;42.152;24.744;2023-06-24T09:29:13;8.90;;;8.00;;
8757;SDS011;4415;42.152;24.744;2023-06-24T09:31:49;8.55;;;7.95;;
8757;SDS011;4415;42.152;24.744;2023-06-24T09:34:15;8.52;;;7.82;;
8757;SDS011;4415;42.152;24.744;2023-06-24T09:36:44;9.20;;;8.52;;
8757;SDS011;4415;42.152;24.744;2023-06-24T09:39:10;9.05;;;7.70;;
8757;SDS011;4415;42.152;24.744;2023-06-24T09:41:39;9.48;;;8.13;;
8757;SDS011;4415;42.152;24.744;2023-06-24T09:44:08;8.55;;;7.95;;
8757;SDS011;4415;42.152;24.744;2023-06-24T09:46:37;12.10;;;11.00;;
8757;SDS011;4415;42.152;24.744;2023-06-24T09:49:05;9.10;;;8.50;;
8757;SDS011;4415;42.152;24.744;2023-06-24T09:51:36;9.10;;;8.48;;
8757;SDS011;4415;42.152;24.744;2023-06-24T09:54:07;10.55;;;8.02;;
8757;SDS011;4415;42.152;24.744;2023-06-24T09:56:36;8.82;;;8.02;;
8757;SDS011;4415;42.152;24.744;2023-06-24T09:59:04;8.75;;;7.85;;
8757;SDS011;4415;42.152;24.744;2023-06-24T10:01:31;8.68;;;8.07;;
8757;SDS011;4415;42.152;24.744;2023-06-24T10:03:57;9.18;;;8.18;;
8757;SDS011;4415;42.152;24.744;2023-06-24T10:06:24;8.43;;;7.88;;
8757;SDS011;4415;42.152;24.744;2023-06-24T10:08:50;7.82;;;7.07;;
8757;SDS011;4415;42.152;24.744;2023-06-24T10:11:17;7.90;;;7.30;;
8757;SDS011;4415;42.152;24.744;2023-06-24T10:13:42;8.07;;;7.50;;
8757;SDS011;4415;42.152;24.744;2023-06-24T10:16:08;8.02;;;7.43;;
8757;SDS011;4415;42.152;24.744;2023-06-24T10:18:35;9.70;;;7.50;;
8757;SDS011;4415;42.152;24.744;2023-06-24T10:21:06;8.65;;;8.05;;
8757;SDS011;4415;42.152;24.744;2023-06-24T10:25:58;7.68;;;7.05;;
8757;SDS011;4415;42.152;24.744;2023-06-24T10:28:24;7.28;;;6.78;;
8757;SDS011;4415;42.152;24.744;2023-06-24T10:30:54;7.60;;;7.20;;
8757;SDS011;4415;42.152;24.744;2023-06-24T10:33:21;9.00;;;8.23;;
8757;SDS011;4415;42.152;24.744;2023-06-24T10:35:46;7.50;;;7.10;;
8757;SDS011;4415;42.152;24.744;2023-06-24T10:38:11;12.00;;;9.65;;
8757;SDS011;4415;42.152;24.744;2023-06-24T10:40:37;10.05;;;7.55;;
8757;SDS011;4415;42.152;24.744;2023-06-24T10:45:51;8.05;;;7.53;;
8757;SDS011;4415;42.152;24.744;2023-06-24T10:48:17;8.02;;;7.53;;
8757;SDS011;4415;42.152;24.744;2023-06-24T10:50:46;15.65;;;8.93;;
8757;SDS011;4415;42.152;24.744;2023-06-24T10:53:13;8.18;;;7.53;;
8757;SDS011;4415;42.152;24.744;2023-06-24T10:55:39;18.92;;;9.27;;
8757;SDS011;4415;42.152;24.744;2023-06-24T10:58:08;8.50;;;7.88;;
8757;SDS011;4415;42.152;24.744;2023-06-24T11:00:34;8.75;;;8.05;;
8757;SDS011;4415;42.152;24.744;2023-06-24T11:03:16;8.48;;;7.90;;
8757;SDS011;4415;42.152;24.744;2023-06-24T11:05:44;9.20;;;8.00;;
8757;SDS011;4415;42.152;24.744;2023-06-24T11:08:11;9.20;;;8.60;;
8757;SDS011;4415;42.152;24.744;2023-06-24T11:10:43;9.43;;;8.75;;
8757;SDS011;4415;42.152;24.744;2023-06-24T11:13:10;9.07;;;8.52;;
8757;SDS011;4415;42.152;24.744;2023-06-24T11:15:35;8.50;;;7.90;;
8757;SDS011;4415;42.152;24.744;2023-06-24T11:18:02;9.60;;;8.65;;
8757;SDS011;4415;42.152;24.744;2023-06-24T11:20:29;10.05;;;9.15;;
8757;SDS011;4415;42.152;24.744;2023-06-24T11:22:54;10.40;;;9.60;;
8757;SDS011;4415;42.152;24.744;2023-06-24T11:25:20;10.32;;;9.43;;
8757;SDS011;4415;42.152;24.744;2023-06-24T11:27:46;10.27;;;9.57;;
8757;SDS011;4415;42.152;24.744;2023-06-24T11:30:13;9.23;;;8.73;;
8757;SDS011;4415;42.152;24.744;2023-06-24T11:32:39;9.82;;;8.82;;
8757;SDS011;4415;42.152;24.744;2023-06-24T11:35:07;9.77;;;8.90;;
8757;SDS011;4415;42.152;24.744;2023-06-24T11:37:34;9.18;;;8.52;;
8757;SDS011;4415;42.152;24.744;2023-06-24T11:40:00;9.88;;;9.07;;
8757;SDS011;4415;42.152;24.744;2023-06-24T11:42:30;9.80;;;9.18;;
8757;SDS011;4415;42.152;24.744;2023-06-24T11:44:59;9.95;;;9.15;;
8757;SDS011;4415;42.152;24.744;2023-06-24T11:47:26;10.45;;;9.60;;
8757;SDS011;4415;42.152;24.744;2023-06-24T11:49:52;9.65;;;8.85;;
8757;SDS011;4415;42.152;24.744;2023-06-24T11:52:27;9.23;;;8.63;;
8757;SDS011;4415;42.152;24.744;2023-06-24T11:54:58;9.35;;;8.63;;
8757;SDS011;4415;42.152;24.744;2023-06-24T11:57:46;9.35;;;8.75;;
8757;SDS011;4415;42.152;24.744;2023-06-24T12:00:13;9.40;;;8.70;;
8757;SDS011;4415;42.152;24.744;2023-06-24T12:02:39;9.57;;;8.88;;
8757;SDS011;4415;42.152;24.744;2023-06-24T12:05:05;10.10;;;9.32;;
8757;SDS011;4415;42.152;24.744;2023-06-24T12:07:31;9.65;;;8.95;;
8757;SDS011;4415;42.152;24.744;2023-06-24T12:09:56;11.18;;;9.88;;
8757;SDS011;4415;42.152;24.744;2023-06-24T12:12:21;9.60;;;9.02;;
8757;SDS011;4415;42.152;24.744;2023-06-24T12:14:47;9.73;;;9.13;;
8757;SDS011;4415;42.152;24.744;2023-06-24T12:17:13;9.55;;;9.05;;
8757;SDS011;4415;42.152;24.744;2023-06-24T12:19:38;10.10;;;9.50;;
8757;SDS011;4415;42.152;24.744;2023-06-24T12:22:04;13.30;;;12.25;;
8757;SDS011;4415;42.152;24.744;2023-06-24T12:24:29;9.90;;;9.15;;
8757;SDS011;4415;42.152;24.744;2023-06-24T12:26:54;10.30;;;9.57;;
8757;SDS011;4415;42.152;24.744;2023-06-24T12:29:21;10.07;;;9.10;;
8757;SDS011;4415;42.152;24.744;2023-06-24T12:31:47;9.63;;;8.93;;
8757;SDS011;4415;42.152;24.744;2023-06-24T12:34:12;10.25;;;9.52;;
8757;SDS011;4415;42.152;24.744;2023-06-24T12:36:38;10.15;;;9.45;;
8757;SDS011;4415;42.152;24.744;2023-06-24T12:39:03;10.90;;;10.00;;
8757;SDS011;4415;42.152;24.744;2023-06-24T12:41:31;10.50;;;9.80;;
8757;SDS011;4415;42.152;24.744;2023-06-24T12:43:58;11.23;;;10.43;;
8757;SDS011;4415;42.152;24.744;2023-06-24T12:46:24;10.15;;;9.25;;
8757;SDS011;4415;42.152;24.744;2023-06-24T12:48:49;10.45;;;9.85;;
8757;SDS011;4415;42.152;24.744;2023-06-24T12:51:14;10.13;;;9.32;;
8757;SDS011;4415;42.152;24.744;2023-06-24T12:53:40;9.45;;;8.93;;
8757;SDS011;4415;42.152;24.744;2023-06-24T12:56:05;9.85;;;9.25;;
8757;SDS011;4415;42.152;24.744;2023-06-24T12:58:30;9.55;;;8.65;;
8757;SDS011;4415;42.152;24.744;2023-06-24T13:00:56;10.07;;;9.23;;
8757;SDS011;4415;42.152;24.744;2023-06-24T13:03:21;10.00;;;9.27;;
8757;SDS011;4415;42.152;24.744;2023-06-24T13:05:47;10.27;;;9.48;;
8757;SDS011;4415;42.152;24.744;2023-06-24T13:08:12;10.05;;;9.45;;
8757;SDS011;4415;42.152;24.744;2023-06-24T13:10:37;9.35;;;8.63;;
8757;SDS011;4415;42.152;24.744;2023-06-24T13:13:04;9.75;;;9.10;;
8757;SDS011;4415;42.152;24.744;2023-06-24T13:15:29;11.05;;;9.60;;
8757;SDS011;4415;42.152;24.744;2023-06-24T13:17:55;9.52;;;8.63;;
8757;SDS011;4415;42.152;24.744;2023-06-24T13:20:20;10.40;;;9.60;;
8757;SDS011;4415;42.152;24.744;2023-06-24T13:22:46;9.95;;;9.25;;
8757;SDS011;4415;42.152;24.744;2023-06-24T13:25:11;10.75;;;9.75;;
8757;SDS011;4415;42.152;24.744;2023-06-24T13:27:37;10.18;;;9.48;;
8757;SDS011;4415;42.152;24.744;2023-06-24T13:30:02;10.13;;;9.30;;
8757;SDS011;4415;42.152;24.744;2023-06-24T13:32:31;10.25;;;9.55;;
8757;SDS011;4415;42.152;24.744;2023-06-24T13:34:57;9.10;;;8.60;;
8757;SDS011;4415;42.152;24.744;2023-06-24T13:37:22;10.10;;;9.23;;
8757;SDS011;4415;42.152;24.744;2023-06-24T13:39:47;9.82;;;9.23;;
8757;SDS011;4415;42.152;24.744;2023-06-24T13:42:13;9.23;;;8.52;;
8757;SDS011;4415;42.152;24.744;2023-06-24T13:44:39;9.82;;;9.23;;
8757;SDS011;4415;42.152;24.744;2023-06-24T13:47:04;9.68;;;8.90;;
8757;SDS011;4415;42.152;24.744;2023-06-24T13:49:30;9.20;;;8.60;;
8757;SDS011;4415;42.152;24.744;2023-06-24T13:51:55;9.32;;;8.52;;
8757;SDS011;4415;42.152;24.744;2023-06-24T13:54:21;9.68;;;8.98;;
8757;SDS011;4415;42.152;24.744;2023-06-24T13:56:46;10.05;;;9.15;;
8757;SDS011;4415;42.152;24.744;2023-06-24T13:59:12;10.18;;;9.25;;
8757;SDS011;4415;42.152;24.744;2023-06-24T14:01:37;9.65;;;9.05;;
8757;SDS011;4415;42.152;24.744;2023-06-24T14:04:02;10.15;;;9.45;;
8757;SDS011;4415;42.152;24.744;2023-06-24T14:06:28;8.88;;;8.18;;
8757;SDS011;4415;42.152;24.744;2023-06-24T14:08:53;9.60;;;8.82;;
8757;SDS011;4415;42.152;24.744;2023-06-24T14:11:19;9.07;;;8.45;;
8757;SDS011;4415;42.152;24.744;2023-06-24T14:13:45;9.45;;;8.65;;
8757;SDS011;4415;42.152;24.744;2023-06-24T14:16:10;9.70;;;9.00;;
8757;SDS011;4415;42.152;24.744;2023-06-24T14:18:37;9.00;;;8.40;;
8757;SDS011;4415;42.152;24.744;2023-06-24T14:21:03;9.55;;;8.77;;
8757;SDS011;4415;42.152;24.744;2023-06-24T14:23:30;9.68;;;8.82;;
8757;SDS011;4415;42.152;24.744;2023-06-24T14:25:56;9.55;;;8.90;;
8757;SDS011;4415;42.152;24.744;2023-06-24T14:28:22;9.77;;;9.10;;
8757;SDS011;4415;42.152;24.744;2023-06-24T14:30:48;9.65;;;8.95;;
8757;SDS011;4415;42.152;24.744;2023-06-24T14:33:13;9.38;;;8.65;;
8757;SDS011;4415;42.152;24.744;2023-06-24T14:35:40;9.55;;;8.65;;
8757;SDS011;4415;42.152;24.744;2023-06-24T14:38:06;8.80;;;8.10;;
8757;SDS011;4415;42.152;24.744;2023-06-24T14:40:32;9.50;;;8.65;;
8757;SDS011;4415;42.152;24.744;2023-06-24T14:42:58;9.13;;;8.55;;
8757;SDS011;4415;42.152;24.744;2023-06-24T14:45:23;8.90;;;8.20;;
8757;SDS011;4415;42.152;24.744;2023-06-24T14:47:49;8.88;;;8.13;;
8757;SDS011;4415;42.152;24.744;2023-06-24T14:50:15;9.43;;;8.73;;
8757;SDS011;4415;42.152;24.744;2023-06-24T14:52:40;8.43;;;7.63;;
8757;SDS011;4415;42.152;24.744;2023-06-24T14:55:06;8.80;;;8.20;;
8757;SDS011;4415;42.152;24.744;2023-06-24T14:57:31;8.38;;;7.82;;
8757;SDS011;4415;42.152;24.744;2023-06-24T14:59:57;8.48;;;7.90;;
8757;SDS011;4415;42.152;24.744;2023-06-24T15:02:22;10.38;;;8.20;;
8757;SDS011;4415;42.152;24.744;2023-06-24T15:04:49;8.40;;;7.82;;
8757;SDS011;4415;42.152;24.744;2023-06-24T15:07:15;8.02;;;7.35;;
8757;SDS011;4415;42.152;24.744;2023-06-24T15:09:40;8.70;;;7.75;;
8757;SDS011;4415;42.152;24.744;2023-06-24T15:12:06;8.70;;;7.90;;
8757;SDS011;4415;42.152;24.744;2023-06-24T15:14:31;9.30;;;8.60;;
8757;SDS011;4415;42.152;24.744;2023-06-24T15:16:57;8.77;;;8.18;;
8757;SDS011;4415;42.152;24.744;2023-06-24T15:19:23;8.65;;;7.95;;
8757;SDS011;4415;42.152;24.744;2023-06-24T15:21:49;8.45;;;7.75;;